sensor_id;sensor_type;location;lat;lon;timestamp;P1;durP1;ratioP1;P2;durP2;ratioP2
69835;SDS011;57132;51.972;4.450;2022-10-22T00:01:37;747.78;;;699.25;;
69835;SDS011;57132;51.972;4.450;2022-10-22T00:04:03;767.67;;;718.35;;
69835;SDS011;57132;51.972;4.450;2022-10-22T00:06:29;795.08;;;742.45;;
69835;SDS011;57132;51.972;4.450;2022-10-22T00:08:54;820.00;;;766.10;;
69835;SDS011;57132;51.972;4.450;2022-10-22T00:11:20;816.60;;;762.00;;
69835;SDS011;57132;51.972;4.450;2022-10-22T00:13:46;842.17;;;785.90;;
69835;SDS011;57132;51.972;4.450;2022-10-22T00:16:11;845.80;;;787.72;;
69835;SDS011;57132;51.972;4.450;2022-10-22T00:18:37;838.65;;;781.45;;
69835;SDS011;57132;51.972;4.450;2022-10-22T00:21:04;866.08;;;805.35;;
69835;SDS011;57132;51.972;4.450;2022-10-22T00:23:30;881.50;;;818.05;;
69835;SDS011;57132;51.972;4.450;2022-10-22T00:25:55;887.92;;;822.60;;
69835;SDS011;57132;51.972;4.450;2022-10-22T00:28:21;901.78;;;834.00;;
69835;SDS011;57132;51.972;4.450;2022-10-22T00:30:47;918.45;;;849.88;;
69835;SDS011;57132;51.972;4.450;2022-10-22T00:33:18;934.30;;;861.85;;
69835;SDS011;57132;51.972;4.450;2022-10-22T00:35:44;934.90;;;862.58;;
69835;SDS011;57132;51.972;4.450;2022-10-22T00:38:09;947.58;;;872.47;;
69835;SDS011;57132;51.972;4.450;2022-10-22T00:40:34;970.47;;;891.72;;
69835;SDS011;57132;51.972;4.450;2022-10-22T00:43:00;973.63;;;893.30;;
69835;SDS011;57132;51.972;4.450;2022-10-22T00:45:25;984.05;;;901.17;;
69835;SDS011;57132;51.972;4.450;2022-10-22T00:52:54;1029.68;;;934.05;;
69835;SDS011;57132;51.972;4.450;2022-10-22T00:55:21;1028.75;;;934.67;;
69835;SDS011;57132;51.972;4.450;2022-10-22T00:57:47;1032.97;;;935.80;;
69835;SDS011;57132;51.972;4.450;2022-10-22T01:00:13;1025.80;;;930.80;;
69835;SDS011;57132;51.972;4.450;2022-10-22T01:02:40;1033.03;;;936.72;;
69835;SDS011;57132;51.972;4.450;2022-10-22T01:05:06;1037.03;;;937.60;;
69835;SDS011;57132;51.972;4.450;2022-10-22T01:07:31;1042.20;;;941.67;;
69835;SDS011;57132;51.972;4.450;2022-10-22T01:10:07;1034.85;;;935.80;;
69835;SDS011;57132;51.972;4.450;2022-10-22T01:21:47;1062.25;;;957.55;;
69835;SDS011;57132;51.972;4.450;2022-10-22T01:29:42;1058.43;;;952.78;;
69835;SDS011;57132;51.972;4.450;2022-10-22T01:32:16;1057.05;;;954.65;;
69835;SDS011;57132;51.972;4.450;2022-10-22T01:34:46;1039.00;;;938.92;;
69835;SDS011;57132;51.972;4.450;2022-10-22T01:37:14;1037.65;;;939.88;;
69835;SDS011;57132;51.972;4.450;2022-10-22T01:39:42;1024.32;;;929.30;;
69835;SDS011;57132;51.972;4.450;2022-10-22T01:42:11;1018.65;;;925.35;;
69835;SDS011;57132;51.972;4.450;2022-10-22T01:44:38;1007.83;;;917.88;;
69835;SDS011;57132;51.972;4.450;2022-10-22T01:55:15;993.38;;;908.13;;
69835;SDS011;57132;51.972;4.450;2022-10-22T02:00:49;992.60;;;908.38;;
69835;SDS011;57132;51.972;4.450;2022-10-22T02:03:23;972.53;;;891.38;;
69835;SDS011;57132;51.972;4.450;2022-10-22T02:05:55;944.25;;;869.47;;
69835;SDS011;57132;51.972;4.450;2022-10-22T02:08:26;931.75;;;859.97;;
69835;SDS011;57132;51.972;4.450;2022-10-22T02:10:54;915.22;;;844.30;;
69835;SDS011;57132;51.972;4.450;2022-10-22T02:13:45;899.78;;;832.85;;
69835;SDS011;57132;51.972;4.450;2022-10-22T02:16:15;885.28;;;819.45;;
69835;SDS011;57132;51.972;4.450;2022-10-22T02:18:45;871.78;;;808.08;;
69835;SDS011;57132;51.972;4.450;2022-10-22T02:21:14;851.40;;;790.83;;
69835;SDS011;57132;51.972;4.450;2022-10-22T02:23:40;804.20;;;749.78;;
69835;SDS011;57132;51.972;4.450;2022-10-22T02:26:06;807.13;;;750.70;;
69835;SDS011;57132;51.972;4.450;2022-10-22T02:28:49;794.72;;;742.17;;
69835;SDS011;57132;51.972;4.450;2022-10-22T02:31:22;773.88;;;721.90;;
69835;SDS011;57132;51.972;4.450;2022-10-22T02:33:52;806.22;;;752.33;;
69835;SDS011;57132;51.972;4.450;2022-10-22T02:36:21;787.40;;;735.20;;
69835;SDS011;57132;51.972;4.450;2022-10-22T02:38:48;780.50;;;727.78;;
69835;SDS011;57132;51.972;4.450;2022-10-22T02:41:15;787.42;;;733.63;;
69835;SDS011;57132;51.972;4.450;2022-10-22T02:43:42;774.65;;;722.33;;
69835;SDS011;57132;51.972;4.450;2022-10-22T02:46:19;700.75;;;656.13;;
69835;SDS011;57132;51.972;4.450;2022-10-22T02:48:45;732.88;;;685.10;;
69835;SDS011;57132;51.972;4.450;2022-10-22T02:51:10;733.17;;;686.63;;
69835;SDS011;57132;51.972;4.450;2022-10-22T02:53:36;754.25;;;704.33;;
69835;SDS011;57132;51.972;4.450;2022-10-22T02:56:01;735.30;;;687.65;;
69835;SDS011;57132;51.972;4.450;2022-10-22T02:58:26;753.15;;;703.58;;
69835;SDS011;57132;51.972;4.450;2022-10-22T03:00:52;759.20;;;709.40;;
69835;SDS011;57132;51.972;4.450;2022-10-22T03:03:17;759.88;;;709.75;;
69835;SDS011;57132;51.972;4.450;2022-10-22T03:05:43;762.47;;;711.28;;
69835;SDS011;57132;51.972;4.450;2022-10-22T03:08:08;764.50;;;714.08;;
69835;SDS011;57132;51.972;4.450;2022-10-22T03:10:33;827.00;;;770.13;;
69835;SDS011;57132;51.972;4.450;2022-10-22T03:12:59;839.58;;;781.65;;
69835;SDS011;57132;51.972;4.450;2022-10-22T03:15:24;834.05;;;777.65;;
69835;SDS011;57132;51.972;4.450;2022-10-22T03:17:50;827.67;;;770.85;;
69835;SDS011;57132;51.972;4.450;2022-10-22T03:20:15;855.03;;;796.13;;
69835;SDS011;57132;51.972;4.450;2022-10-22T03:22:41;845.30;;;785.50;;
69835;SDS011;57132;51.972;4.450;2022-10-22T03:25:08;872.85;;;810.28;;
69835;SDS011;57132;51.972;4.450;2022-10-22T03:27:38;853.60;;;793.30;;
69835;SDS011;57132;51.972;4.450;2022-10-22T03:30:04;841.80;;;782.53;;
69835;SDS011;57132;51.972;4.450;2022-10-22T03:32:30;845.30;;;786.58;;
69835;SDS011;57132;51.972;4.450;2022-10-22T03:34:56;844.30;;;784.28;;
69835;SDS011;57132;51.972;4.450;2022-10-22T03:37:21;870.55;;;808.58;;
69835;SDS011;57132;51.972;4.450;2022-10-22T03:39:49;868.33;;;806.65;;
69835;SDS011;57132;51.972;4.450;2022-10-22T03:42:15;864.75;;;803.45;;
69835;SDS011;57132;51.972;4.450;2022-10-22T03:44:41;881.22;;;816.83;;
69835;SDS011;57132;51.972;4.450;2022-10-22T03:47:07;879.60;;;815.75;;
69835;SDS011;57132;51.972;4.450;2022-10-22T03:49:32;883.80;;;819.88;;
69835;SDS011;57132;51.972;4.450;2022-10-22T03:51:58;926.63;;;856.60;;
69835;SDS011;57132;51.972;4.450;2022-10-22T03:54:29;941.03;;;868.33;;
69835;SDS011;57132;51.972;4.450;2022-10-22T03:56:54;945.75;;;871.58;;
69835;SDS011;57132;51.972;4.450;2022-10-22T03:59:20;927.30;;;856.75;;
69835;SDS011;57132;51.972;4.450;2022-10-22T04:01:45;936.38;;;862.80;;
69835;SDS011;57132;51.972;4.450;2022-10-22T04:04:10;934.22;;;862.55;;
69835;SDS011;57132;51.972;4.450;2022-10-22T04:06:36;922.55;;;851.47;;
69835;SDS011;57132;51.972;4.450;2022-10-22T04:09:01;918.92;;;849.90;;
69835;SDS011;57132;51.972;4.450;2022-10-22T04:11:26;917.45;;;847.22;;
69835;SDS011;57132;51.972;4.450;2022-10-22T04:13:52;906.03;;;837.13;;
69835;SDS011;57132;51.972;4.450;2022-10-22T04:16:18;899.25;;;831.85;;
69835;SDS011;57132;51.972;4.450;2022-10-22T04:18:46;911.25;;;844.13;;
69835;SDS011;57132;51.972;4.450;2022-10-22T04:21:14;915.13;;;845.00;;
69835;SDS011;57132;51.972;4.450;2022-10-22T04:23:47;905.60;;;838.08;;
69835;SDS011;57132;51.972;4.450;2022-10-22T04:26:14;900.83;;;834.08;;
69835;SDS011;57132;51.972;4.450;2022-10-22T04:28:40;898.17;;;832.03;;
69835;SDS011;57132;51.972;4.450;2022-10-22T04:31:07;901.47;;;834.13;;
69835;SDS011;57132;51.972;4.450;2022-10-22T04:33:33;907.38;;;838.67;;
69835;SDS011;57132;51.972;4.450;2022-10-22T04:35:58;891.42;;;825.20;;
69835;SDS011;57132;51.972;4.450;2022-10-22T04:38:24;863.10;;;800.38;;
69835;SDS011;57132;51.972;4.450;2022-10-22T04:40:49;855.83;;;794.22;;
69835;SDS011;57132;51.972;4.450;2022-10-22T04:43:14;880.22;;;815.00;;
69835;SDS011;57132;51.972;4.450;2022-10-22T04:45:40;854.28;;;793.70;;
69835;SDS011;57132;51.972;4.450;2022-10-22T04:48:05;857.22;;;795.13;;
69835;SDS011;57132;51.972;4.450;2022-10-22T04:50:31;836.53;;;777.58;;
69835;SDS011;57132;51.972;4.450;2022-10-22T04:52:56;830.50;;;772.20;;
69835;SDS011;57132;51.972;4.450;2022-10-22T04:55:21;822.85;;;765.90;;
69835;SDS011;57132;51.972;4.450;2022-10-22T04:57:47;801.45;;;745.65;;
69835;SDS011;57132;51.972;4.450;2022-10-22T05:00:12;785.72;;;732.35;;
69835;SDS011;57132;51.972;4.450;2022-10-22T05:02:37;766.38;;;715.03;;
69835;SDS011;57132;51.972;4.450;2022-10-22T05:05:03;783.88;;;730.05;;
69835;SDS011;57132;51.972;4.450;2022-10-22T05:07:29;772.53;;;719.47;;
69835;SDS011;57132;51.972;4.450;2022-10-22T05:09:54;728.97;;;680.85;;
69835;SDS011;57132;51.972;4.450;2022-10-22T05:12:19;782.80;;;719.72;;
69835;SDS011;57132;51.972;4.450;2022-10-22T05:14:45;698.95;;;654.50;;
69835;SDS011;57132;51.972;4.450;2022-10-22T05:17:10;686.22;;;643.80;;
69835;SDS011;57132;51.972;4.450;2022-10-22T05:19:35;704.15;;;659.28;;
69835;SDS011;57132;51.972;4.450;2022-10-22T05:22:02;706.45;;;661.42;;
69835;SDS011;57132;51.972;4.450;2022-10-22T05:24:28;727.75;;;681.35;;
69835;SDS011;57132;51.972;4.450;2022-10-22T05:26:55;720.05;;;674.25;;
69835;SDS011;57132;51.972;4.450;2022-10-22T05:29:21;711.90;;;665.95;;
69835;SDS011;57132;51.972;4.450;2022-10-22T05:31:47;725.47;;;677.58;;
69835;SDS011;57132;51.972;4.450;2022-10-22T05:34:13;736.88;;;687.95;;
69835;SDS011;57132;51.972;4.450;2022-10-22T05:36:39;771.50;;;720.67;;
69835;SDS011;57132;51.972;4.450;2022-10-22T05:39:04;803.05;;;748.10;;
69835;SDS011;57132;51.972;4.450;2022-10-22T05:41:31;766.72;;;714.55;;
69835;SDS011;57132;51.972;4.450;2022-10-22T05:43:57;792.80;;;739.58;;
69835;SDS011;57132;51.972;4.450;2022-10-22T05:46:25;793.10;;;740.53;;
69835;SDS011;57132;51.972;4.450;2022-10-22T05:48:55;786.85;;;733.65;;
69835;SDS011;57132;51.972;4.450;2022-10-22T05:51:25;798.57;;;744.67;;
69835;SDS011;57132;51.972;4.450;2022-10-22T05:53:53;788.65;;;733.35;;
69835;SDS011;57132;51.972;4.450;2022-10-22T05:56:20;780.53;;;727.78;;
69835;SDS011;57132;51.972;4.450;2022-10-22T05:58:46;767.75;;;716.65;;
69835;SDS011;57132;51.972;4.450;2022-10-22T06:01:12;780.05;;;727.70;;
69835;SDS011;57132;51.972;4.450;2022-10-22T06:03:40;776.85;;;724.20;;
69835;SDS011;57132;51.972;4.450;2022-10-22T06:06:19;777.20;;;724.75;;
69835;SDS011;57132;51.972;4.450;2022-10-22T06:09:00;803.13;;;748.58;;
69835;SDS011;57132;51.972;4.450;2022-10-22T06:11:29;759.58;;;707.55;;
69835;SDS011;57132;51.972;4.450;2022-10-22T06:13:54;796.72;;;741.67;;
69835;SDS011;57132;51.972;4.450;2022-10-22T06:16:19;812.60;;;757.25;;
69835;SDS011;57132;51.972;4.450;2022-10-22T06:18:45;799.38;;;744.88;;
69835;SDS011;57132;51.972;4.450;2022-10-22T06:21:11;806.85;;;750.88;;
69835;SDS011;57132;51.972;4.450;2022-10-22T06:23:38;835.13;;;777.53;;
69835;SDS011;57132;51.972;4.450;2022-10-22T06:26:04;822.13;;;765.30;;
69835;SDS011;57132;51.972;4.450;2022-10-22T06:28:31;855.55;;;793.47;;
69835;SDS011;57132;51.972;4.450;2022-10-22T06:30:57;863.63;;;800.75;;
69835;SDS011;57132;51.972;4.450;2022-10-22T06:33:24;872.03;;;809.97;;
69835;SDS011;57132;51.972;4.450;2022-10-22T06:35:50;886.67;;;822.97;;
69835;SDS011;57132;51.972;4.450;2022-10-22T06:38:15;889.35;;;825.22;;
69835;SDS011;57132;51.972;4.450;2022-10-22T06:40:41;888.00;;;823.25;;
69835;SDS011;57132;51.972;4.450;2022-10-22T06:43:13;900.53;;;833.90;;
69835;SDS011;57132;51.972;4.450;2022-10-22T06:45:38;885.03;;;818.90;;
69835;SDS011;57132;51.972;4.450;2022-10-22T06:48:04;883.45;;;819.72;;
69835;SDS011;57132;51.972;4.450;2022-10-22T06:50:30;839.78;;;779.88;;
69835;SDS011;57132;51.972;4.450;2022-10-22T06:52:57;886.67;;;817.05;;
69835;SDS011;57132;51.972;4.450;2022-10-22T06:55:23;861.63;;;799.38;;
69835;SDS011;57132;51.972;4.450;2022-10-22T06:57:48;876.20;;;812.03;;
69835;SDS011;57132;51.972;4.450;2022-10-22T07:00:13;909.67;;;839.38;;
69835;SDS011;57132;51.972;4.450;2022-10-22T07:02:39;867.63;;;805.13;;
69835;SDS011;57132;51.972;4.450;2022-10-22T07:05:04;881.28;;;816.70;;
69835;SDS011;57132;51.972;4.450;2022-10-22T07:07:30;852.85;;;787.58;;
69835;SDS011;57132;51.972;4.450;2022-10-22T07:09:55;840.00;;;778.47;;
69835;SDS011;57132;51.972;4.450;2022-10-22T07:12:21;824.92;;;765.60;;
69835;SDS011;57132;51.972;4.450;2022-10-22T07:14:47;790.65;;;736.72;;
69835;SDS011;57132;51.972;4.450;2022-10-22T07:17:13;822.80;;;765.53;;
69835;SDS011;57132;51.972;4.450;2022-10-22T07:19:38;828.30;;;769.85;;
69835;SDS011;57132;51.972;4.450;2022-10-22T07:22:03;860.78;;;798.55;;
69835;SDS011;57132;51.972;4.450;2022-10-22T07:24:28;876.13;;;812.78;;
69835;SDS011;57132;51.972;4.450;2022-10-22T07:26:54;894.42;;;830.03;;
69835;SDS011;57132;51.972;4.450;2022-10-22T07:29:19;908.20;;;836.13;;
69835;SDS011;57132;51.972;4.450;2022-10-22T07:31:45;901.58;;;834.17;;
69835;SDS011;57132;51.972;4.450;2022-10-22T07:34:10;895.05;;;824.53;;
69835;SDS011;57132;51.972;4.450;2022-10-22T07:36:35;876.22;;;810.33;;
69835;SDS011;57132;51.972;4.450;2022-10-22T07:39:01;861.45;;;799.38;;
69835;SDS011;57132;51.972;4.450;2022-10-22T07:41:28;824.42;;;767.55;;
69835;SDS011;57132;51.972;4.450;2022-10-22T07:43:54;866.38;;;802.15;;
69835;SDS011;57132;51.972;4.450;2022-10-22T07:46:20;855.17;;;792.53;;
69835;SDS011;57132;51.972;4.450;2022-10-22T07:48:46;863.05;;;798.28;;
69835;SDS011;57132;51.972;4.450;2022-10-22T07:51:12;853.60;;;792.80;;
69835;SDS011;57132;51.972;4.450;2022-10-22T07:53:38;845.55;;;783.35;;
69835;SDS011;57132;51.972;4.450;2022-10-22T07:56:03;806.55;;;749.38;;
69835;SDS011;57132;51.972;4.450;2022-10-22T07:58:29;856.70;;;787.25;;
69835;SDS011;57132;51.972;4.450;2022-10-22T08:00:56;774.70;;;722.13;;
69835;SDS011;57132;51.972;4.450;2022-10-22T08:03:24;792.20;;;737.88;;
69835;SDS011;57132;51.972;4.450;2022-10-22T08:05:50;794.67;;;739.53;;
69835;SDS011;57132;51.972;4.450;2022-10-22T08:08:16;829.55;;;767.50;;
69835;SDS011;57132;51.972;4.450;2022-10-22T08:10:42;726.88;;;679.28;;
69835;SDS011;57132;51.972;4.450;2022-10-22T08:13:08;747.65;;;698.85;;
69835;SDS011;57132;51.972;4.450;2022-10-22T08:15:34;810.42;;;752.38;;
69835;SDS011;57132;51.972;4.450;2022-10-22T08:17:59;812.42;;;755.00;;
69835;SDS011;57132;51.972;4.450;2022-10-22T08:20:24;781.00;;;728.10;;
69835;SDS011;57132;51.972;4.450;2022-10-22T08:22:50;803.25;;;747.55;;
69835;SDS011;57132;51.972;4.450;2022-10-22T08:25:15;830.60;;;773.53;;
69835;SDS011;57132;51.972;4.450;2022-10-22T08:27:42;813.92;;;755.42;;
69835;SDS011;57132;51.972;4.450;2022-10-22T08:30:07;824.40;;;766.28;;
69835;SDS011;57132;51.972;4.450;2022-10-22T08:32:33;822.80;;;764.95;;
69835;SDS011;57132;51.972;4.450;2022-10-22T08:34:58;833.92;;;774.90;;
69835;SDS011;57132;51.972;4.450;2022-10-22T08:37:24;854.40;;;792.45;;
69835;SDS011;57132;51.972;4.450;2022-10-22T08:39:49;839.22;;;779.08;;
69835;SDS011;57132;51.972;4.450;2022-10-22T08:45:19;886.75;;;823.35;;
69835;SDS011;57132;51.972;4.450;2022-10-22T08:48:16;929.25;;;856.78;;
69835;SDS011;57132;51.972;4.450;2022-10-22T08:50:53;985.65;;;900.00;;
69835;SDS011;57132;51.972;4.450;2022-10-22T08:53:22;1019.05;;;927.75;;
69835;SDS011;57132;51.972;4.450;2022-10-22T08:55:54;1041.63;;;935.13;;
69835;SDS011;57132;51.972;4.450;2022-10-22T09:00:49;960.05;;;881.30;;
69835;SDS011;57132;51.972;4.450;2022-10-22T09:03:26;870.30;;;804.65;;
69835;SDS011;57132;51.972;4.450;2022-10-22T09:08:45;1022.65;;;929.15;;
69835;SDS011;57132;51.972;4.450;2022-10-22T09:13:36;988.58;;;902.83;;
69835;SDS011;57132;51.972;4.450;2022-10-22T09:16:19;899.78;;;830.33;;
69835;SDS011;57132;51.972;4.450;2022-10-22T09:18:54;930.85;;;857.88;;
69835;SDS011;57132;51.972;4.450;2022-10-22T09:26:52;995.72;;;908.35;;
69835;SDS011;57132;51.972;4.450;2022-10-22T09:29:18;1053.07;;;950.53;;
69835;SDS011;57132;51.972;4.450;2022-10-22T09:31:48;1055.25;;;950.40;;
69835;SDS011;57132;51.972;4.450;2022-10-22T09:34:14;1021.97;;;929.60;;
69835;SDS011;57132;51.972;4.450;2022-10-22T09:36:44;1077.28;;;965.45;;
69835;SDS011;57132;51.972;4.450;2022-10-22T09:39:26;1201.50;;;993.25;;
69835;SDS011;57132;51.972;4.450;2022-10-22T09:41:56;1327.82;;;999.90;;
69835;SDS011;57132;51.972;4.450;2022-10-22T09:44:21;1341.07;;;999.90;;
69835;SDS011;57132;51.972;4.450;2022-10-22T09:46:47;1340.18;;;999.90;;
69835;SDS011;57132;51.972;4.450;2022-10-22T09:49:13;1277.65;;;999.90;;
69835;SDS011;57132;51.972;4.450;2022-10-22T09:54:22;1114.13;;;974.13;;
69835;SDS011;57132;51.972;4.450;2022-10-22T09:56:54;1302.88;;;999.90;;
69835;SDS011;57132;51.972;4.450;2022-10-22T09:59:28;1177.72;;;995.63;;
69835;SDS011;57132;51.972;4.450;2022-10-22T10:01:59;1115.05;;;972.55;;
69835;SDS011;57132;51.972;4.450;2022-10-22T10:04:31;1040.27;;;930.50;;
69835;SDS011;57132;51.972;4.450;2022-10-22T10:06:58;978.55;;;875.08;;
69835;SDS011;57132;51.972;4.450;2022-10-22T10:09:24;1010.38;;;906.13;;
69835;SDS011;57132;51.972;4.450;2022-10-22T10:17:56;999.30;;;910.92;;
69835;SDS011;57132;51.972;4.450;2022-10-22T10:25:36;1341.28;;;991.08;;
69835;SDS011;57132;51.972;4.450;2022-10-22T10:30:40;1378.28;;;999.90;;
69835;SDS011;57132;51.972;4.450;2022-10-22T10:33:28;1378.32;;;991.63;;
69835;SDS011;57132;51.972;4.450;2022-10-22T10:36:36;1385.93;;;999.85;;
69835;SDS011;57132;51.972;4.450;2022-10-22T10:39:16;1412.20;;;999.90;;
69835;SDS011;57132;51.972;4.450;2022-10-22T10:50:11;1423.25;;;999.90;;
69835;SDS011;57132;51.972;4.450;2022-10-22T10:53:37;1248.43;;;995.65;;
69835;SDS011;57132;51.972;4.450;2022-10-22T10:55:38;1224.03;;;999.65;;
69835;SDS011;57132;51.972;4.450;2022-10-22T11:00:52;1048.35;;;942.47;;
69835;SDS011;57132;51.972;4.450;2022-10-22T11:06:17;1016.47;;;919.72;;
69835;SDS011;57132;51.972;4.450;2022-10-22T11:08:46;1137.78;;;963.33;;
69835;SDS011;57132;51.972;4.450;2022-10-22T11:19:36;1080.45;;;957.25;;
69835;SDS011;57132;51.972;4.450;2022-10-22T11:27:36;1267.20;;;991.40;;
69835;SDS011;57132;51.972;4.450;2022-10-22T11:30:16;1376.65;;;999.90;;
69835;SDS011;57132;51.972;4.450;2022-10-22T11:32:46;1369.25;;;999.90;;
69835;SDS011;57132;51.972;4.450;2022-10-22T11:35:16;1128.80;;;972.33;;
69835;SDS011;57132;51.972;4.450;2022-10-22T11:37:46;1034.13;;;930.42;;
69835;SDS011;57132;51.972;4.450;2022-10-22T11:40:17;1221.40;;;992.83;;
69835;SDS011;57132;51.972;4.450;2022-10-22T11:42:51;1056.93;;;940.92;;
69835;SDS011;57132;51.972;4.450;2022-10-22T11:50:27;1160.18;;;978.40;;
69835;SDS011;57132;51.972;4.450;2022-10-22T11:55:46;1268.75;;;980.28;;
69835;SDS011;57132;51.972;4.450;2022-10-22T12:08:28;1138.47;;;962.30;;
69835;SDS011;57132;51.972;4.450;2022-10-22T12:13:29;1194.82;;;971.40;;
69835;SDS011;57132;51.972;4.450;2022-10-22T12:15:57;1070.32;;;956.22;;
69835;SDS011;57132;51.972;4.450;2022-10-22T12:18:27;1113.43;;;957.33;;
69835;SDS011;57132;51.972;4.450;2022-10-22T12:20:58;1419.00;;;999.83;;
69835;SDS011;57132;51.972;4.450;2022-10-22T12:23:25;1030.78;;;927.35;;
69835;SDS011;57132;51.972;4.450;2022-10-22T12:25:54;1051.97;;;942.25;;
69835;SDS011;57132;51.972;4.450;2022-10-22T12:28:21;1163.03;;;975.38;;
69835;SDS011;57132;51.972;4.450;2022-10-22T12:30:46;1260.45;;;993.97;;
69835;SDS011;57132;51.972;4.450;2022-10-22T12:33:19;1087.53;;;966.08;;
69835;SDS011;57132;51.972;4.450;2022-10-22T12:35:46;1085.63;;;961.90;;
69835;SDS011;57132;51.972;4.450;2022-10-22T12:40:42;1025.18;;;928.25;;
69835;SDS011;57132;51.972;4.450;2022-10-22T12:43:12;1069.05;;;959.13;;
69835;SDS011;57132;51.972;4.450;2022-10-22T12:45:39;973.30;;;889.88;;
69835;SDS011;57132;51.972;4.450;2022-10-22T12:48:07;964.08;;;877.45;;
69835;SDS011;57132;51.972;4.450;2022-10-22T12:50:41;980.20;;;896.55;;
69835;SDS011;57132;51.972;4.450;2022-10-22T12:55:55;960.80;;;878.17;;
69835;SDS011;57132;51.972;4.450;2022-10-22T12:58:25;943.28;;;863.75;;
69835;SDS011;57132;51.972;4.450;2022-10-22T13:00:54;950.10;;;869.28;;
69835;SDS011;57132;51.972;4.450;2022-10-22T13:03:30;961.60;;;876.63;;
69835;SDS011;57132;51.972;4.450;2022-10-22T13:08:42;1246.82;;;927.97;;
69835;SDS011;57132;51.972;4.450;2022-10-22T13:11:08;958.88;;;875.83;;
69835;SDS011;57132;51.972;4.450;2022-10-22T13:16:13;966.03;;;880.83;;
69835;SDS011;57132;51.972;4.450;2022-10-22T13:18:48;972.13;;;888.05;;
69835;SDS011;57132;51.972;4.450;2022-10-22T13:24:47;976.40;;;890.30;;
69835;SDS011;57132;51.972;4.450;2022-10-22T13:26:50;1000.60;;;904.95;;
69835;SDS011;57132;51.972;4.450;2022-10-22T13:29:18;1012.83;;;915.08;;
69835;SDS011;57132;51.972;4.450;2022-10-22T13:31:46;989.83;;;894.90;;
69835;SDS011;57132;51.972;4.450;2022-10-22T13:34:15;968.58;;;877.95;;
69835;SDS011;57132;51.972;4.450;2022-10-22T13:36:43;1018.40;;;921.28;;
69835;SDS011;57132;51.972;4.450;2022-10-22T13:39:18;991.28;;;896.88;;
69835;SDS011;57132;51.972;4.450;2022-10-22T13:41:45;1011.20;;;911.13;;
69835;SDS011;57132;51.972;4.450;2022-10-22T13:44:11;983.72;;;889.08;;
69835;SDS011;57132;51.972;4.450;2022-10-22T13:46:37;1006.67;;;907.35;;
69835;SDS011;57132;51.972;4.450;2022-10-22T13:49:06;1002.92;;;906.03;;
69835;SDS011;57132;51.972;4.450;2022-10-22T13:51:39;987.00;;;891.08;;
69835;SDS011;57132;51.972;4.450;2022-10-22T13:54:07;974.85;;;883.08;;
69835;SDS011;57132;51.972;4.450;2022-10-22T13:56:38;984.67;;;892.55;;
69835;SDS011;57132;51.972;4.450;2022-10-22T13:59:03;1011.20;;;914.60;;
69835;SDS011;57132;51.972;4.450;2022-10-22T14:01:29;1008.42;;;912.17;;
69835;SDS011;57132;51.972;4.450;2022-10-22T14:03:55;1023.75;;;924.28;;
69835;SDS011;57132;51.972;4.450;2022-10-22T14:06:23;1000.38;;;905.80;;
69835;SDS011;57132;51.972;4.450;2022-10-22T14:08:52;986.00;;;891.85;;
69835;SDS011;57132;51.972;4.450;2022-10-22T14:11:22;1006.90;;;912.17;;
69835;SDS011;57132;51.972;4.450;2022-10-22T14:13:48;1018.55;;;917.90;;
69835;SDS011;57132;51.972;4.450;2022-10-22T14:16:15;1052.43;;;942.22;;
69835;SDS011;57132;51.972;4.450;2022-10-22T14:18:45;1069.07;;;948.28;;
69835;SDS011;57132;51.972;4.450;2022-10-22T14:21:12;1117.32;;;961.47;;
69835;SDS011;57132;51.972;4.450;2022-10-22T14:23:39;1313.85;;;987.53;;
69835;SDS011;57132;51.972;4.450;2022-10-22T14:26:06;1185.60;;;984.92;;
69835;SDS011;57132;51.972;4.450;2022-10-22T14:28:32;1200.95;;;990.08;;
69835;SDS011;57132;51.972;4.450;2022-10-22T14:30:58;1042.57;;;936.50;;
69835;SDS011;57132;51.972;4.450;2022-10-22T14:33:24;1039.65;;;940.53;;
69835;SDS011;57132;51.972;4.450;2022-10-22T14:35:52;1020.17;;;927.40;;
69835;SDS011;57132;51.972;4.450;2022-10-22T14:38:18;1027.72;;;926.13;;
69835;SDS011;57132;51.972;4.450;2022-10-22T14:40:43;1038.40;;;938.50;;
69835;SDS011;57132;51.972;4.450;2022-10-22T14:43:22;976.72;;;892.33;;
69835;SDS011;57132;51.972;4.450;2022-10-22T14:45:50;982.72;;;896.75;;
69835;SDS011;57132;51.972;4.450;2022-10-22T14:48:16;977.15;;;890.60;;
69835;SDS011;57132;51.972;4.450;2022-10-22T14:50:42;1065.53;;;957.25;;
69835;SDS011;57132;51.972;4.450;2022-10-22T14:53:08;1134.30;;;971.65;;
69835;SDS011;57132;51.972;4.450;2022-10-22T14:55:34;1063.68;;;957.20;;
69835;SDS011;57132;51.972;4.450;2022-10-22T14:57:59;1082.30;;;966.85;;
69835;SDS011;57132;51.972;4.450;2022-10-22T15:00:25;1177.32;;;990.15;;
69835;SDS011;57132;51.972;4.450;2022-10-22T15:02:50;1069.70;;;957.95;;
69835;SDS011;57132;51.972;4.450;2022-10-22T15:05:16;1049.07;;;945.90;;
69835;SDS011;57132;51.972;4.450;2022-10-22T15:07:42;1046.28;;;943.60;;
69835;SDS011;57132;51.972;4.450;2022-10-22T15:10:08;1106.20;;;977.97;;
69835;SDS011;57132;51.972;4.450;2022-10-22T15:12:34;1180.18;;;979.85;;
69835;SDS011;57132;51.972;4.450;2022-10-22T15:15:00;1198.60;;;982.60;;
69835;SDS011;57132;51.972;4.450;2022-10-22T15:17:26;1224.47;;;973.10;;
69835;SDS011;57132;51.972;4.450;2022-10-22T15:19:52;1363.00;;;999.20;;
69835;SDS011;57132;51.972;4.450;2022-10-22T15:22:17;1388.22;;;999.80;;
69835;SDS011;57132;51.972;4.450;2022-10-22T15:24:43;1414.32;;;999.90;;
69835;SDS011;57132;51.972;4.450;2022-10-22T15:27:09;1376.47;;;992.08;;
69835;SDS011;57132;51.972;4.450;2022-10-22T15:29:37;1380.95;;;999.90;;
69835;SDS011;57132;51.972;4.450;2022-10-22T15:32:04;1388.22;;;999.90;;
69835;SDS011;57132;51.972;4.450;2022-10-22T15:34:33;1379.25;;;999.90;;
69835;SDS011;57132;51.972;4.450;2022-10-22T15:37:00;1372.35;;;999.90;;
69835;SDS011;57132;51.972;4.450;2022-10-22T15:39:28;1306.20;;;999.90;;
69835;SDS011;57132;51.972;4.450;2022-10-22T15:41:54;1345.30;;;999.90;;
69835;SDS011;57132;51.972;4.450;2022-10-22T15:44:29;1319.32;;;999.90;;
69835;SDS011;57132;51.972;4.450;2022-10-22T15:46:55;1357.03;;;999.90;;
69835;SDS011;57132;51.972;4.450;2022-10-22T15:49:21;1404.07;;;999.90;;
69835;SDS011;57132;51.972;4.450;2022-10-22T15:51:48;1468.10;;;999.90;;
69835;SDS011;57132;51.972;4.450;2022-10-22T15:54:16;1462.60;;;999.90;;
69835;SDS011;57132;51.972;4.450;2022-10-22T15:57:01;1443.50;;;999.90;;
69835;SDS011;57132;51.972;4.450;2022-10-22T15:59:32;1446.80;;;999.90;;
69835;SDS011;57132;51.972;4.450;2022-10-22T16:01:57;1454.85;;;999.90;;